sensor_id;sensor_type;location;lat;lon;timestamp;temperature;humidity
36548;DHT22;22551;52.206;4.856;2023-06-10T00:02:43;20.90;99.90
36548;DHT22;22551;52.206;4.856;2023-06-10T00:07:45;20.90;99.90
36548;DHT22;22551;52.206;4.856;2023-06-10T00:12:48;20.80;99.90
36548;DHT22;22551;52.206;4.856;2023-06-10T00:17:53;20.70;99.90
36548;DHT22;22551;52.206;4.856;2023-06-10T00:22:55;20.60;99.90
36548;DHT22;22551;52.206;4.856;2023-06-10T00:27:59;20.40;99.90
36548;DHT22;22551;52.206;4.856;2023-06-10T00:33:04;20.30;99.90
36548;DHT22;22551;52.206;4.856;2023-06-10T00:38:07;20.20;99.90
36548;DHT22;22551;52.206;4.856;2023-06-10T00:43:09;20.00;99.90
36548;DHT22;22551;52.206;4.856;2023-06-10T00:48:13;20.00;99.90
36548;DHT22;22551;52.206;4.856;2023-06-10T00:53:16;20.00;99.90
36548;DHT22;22551;52.206;4.856;2023-06-10T00:58:18;20.00;99.90
36548;DHT22;22551;52.206;4.856;2023-06-10T01:03:22;20.00;99.90
36548;DHT22;22551;52.206;4.856;2023-06-10T01:08:28;20.00;99.90
36548;DHT22;22551;52.206;4.856;2023-06-10T01:13:36;19.90;99.90
36548;DHT22;22551;52.206;4.856;2023-06-10T01:18:41;19.90;99.90
36548;DHT22;22551;52.206;4.856;2023-06-10T01:23:46;19.80;99.90
36548;DHT22;22551;52.206;4.856;2023-06-10T01:28:52;19.70;99.90
36548;DHT22;22551;52.206;4.856;2023-06-10T01:34:00;19.70;99.90
36548;DHT22;22551;52.206;4.856;2023-06-10T01:39:05;19.70;99.90
36548;DHT22;22551;52.206;4.856;2023-06-10T01:44:08;19.60;99.90
36548;DHT22;22551;52.206;4.856;2023-06-10T01:49:10;19.60;99.90
36548;DHT22;22551;52.206;4.856;2023-06-10T01:54:14;19.50;99.90
36548;DHT22;22551;52.206;4.856;2023-06-10T01:59:16;19.50;99.90
36548;DHT22;22551;52.206;4.856;2023-06-10T02:04:18;19.40;99.90
36548;DHT22;22551;52.206;4.856;2023-06-10T02:09:22;19.50;99.90
36548;DHT22;22551;52.206;4.856;2023-06-10T02:14:25;19.40;99.90
36548;DHT22;22551;52.206;4.856;2023-06-10T02:19:28;19.30;99.90
36548;DHT22;22551;52.206;4.856;2023-06-10T02:24:32;19.30;99.90
36548;DHT22;22551;52.206;4.856;2023-06-10T02:29:34;19.20;99.90
36548;DHT22;22551;52.206;4.856;2023-06-10T02:34:37;19.10;99.90
36548;DHT22;22551;52.206;4.856;2023-06-10T02:39:40;19.10;99.90
36548;DHT22;22551;52.206;4.856;2023-06-10T02:44:43;19.00;99.90
36548;DHT22;22551;52.206;4.856;2023-06-10T02:49:45;18.90;99.90
36548;DHT22;22551;52.206;4.856;2023-06-10T02:54:48;18.90;99.90
36548;DHT22;22551;52.206;4.856;2023-06-10T02:59:51;18.90;99.90
36548;DHT22;22551;52.206;4.856;2023-06-10T03:04:54;18.90;99.90
36548;DHT22;22551;52.206;4.856;2023-06-10T03:09:58;18.90;99.90
36548;DHT22;22551;52.206;4.856;2023-06-10T03:15:00;18.90;99.90
36548;DHT22;22551;52.206;4.856;2023-06-10T03:20:05;18.90;99.90
36548;DHT22;22551;52.206;4.856;2023-06-10T03:25:12;18.80;99.90
36548;DHT22;22551;52.206;4.856;2023-06-10T03:30:16;18.80;99.90
36548;DHT22;22551;52.206;4.856;2023-06-10T03:35:18;18.90;99.90
36548;DHT22;22551;52.206;4.856;2023-06-10T03:40:22;18.80;99.90
36548;DHT22;22551;52.206;4.856;2023-06-10T03:45:24;18.80;99.90
36548;DHT22;22551;52.206;4.856;2023-06-10T03:50:28;18.70;99.90
36548;DHT22;22551;52.206;4.856;2023-06-10T03:55:32;18.70;99.90
36548;DHT22;22551;52.206;4.856;2023-06-10T04:00:34;18.70;99.90
36548;DHT22;22551;52.206;4.856;2023-06-10T04:05:42;18.70;99.90
36548;DHT22;22551;52.206;4.856;2023-06-10T04:10:45;18.70;99.90
36548;DHT22;22551;52.206;4.856;2023-06-10T04:15:47;18.60;99.90
36548;DHT22;22551;52.206;4.856;2023-06-10T04:20:50;18.70;99.90
36548;DHT22;22551;52.206;4.856;2023-06-10T04:25:54;18.60;99.90
36548;DHT22;22551;52.206;4.856;2023-06-10T04:30:56;18.70;99.90
36548;DHT22;22551;52.206;4.856;2023-06-10T04:35:58;18.70;99.90
36548;DHT22;22551;52.206;4.856;2023-06-10T04:41:02;18.70;99.90
36548;DHT22;22551;52.206;4.856;2023-06-10T04:46:05;18.80;99.90
36548;DHT22;22551;52.206;4.856;2023-06-10T04:51:07;18.70;99.90
36548;DHT22;22551;52.206;4.856;2023-06-10T04:56:11;18.80;99.90
36548;DHT22;22551;52.206;4.856;2023-06-10T05:01:15;18.90;99.90
36548;DHT22;22551;52.206;4.856;2023-06-10T05:06:18;18.90;99.90
36548;DHT22;22551;52.206;4.856;2023-06-10T05:11:22;19.00;99.90
36548;DHT22;22551;52.206;4.856;2023-06-10T05:16:24;19.00;99.90
36548;DHT22;22551;52.206;4.856;2023-06-10T05:21:26;19.20;99.90
36548;DHT22;22551;52.206;4.856;2023-06-10T05:26:30;19.20;99.90
36548;DHT22;22551;52.206;4.856;2023-06-10T05:31:33;19.30;99.90
36548;DHT22;22551;52.206;4.856;2023-06-10T05:36:36;19.60;99.90
36548;DHT22;22551;52.206;4.856;2023-06-10T05:41:39;20.00;99.90
36548;DHT22;22551;52.206;4.856;2023-06-10T05:46:42;20.60;99.90
36548;DHT22;22551;52.206;4.856;2023-06-10T05:51:44;21.00;99.90
36548;DHT22;22551;52.206;4.856;2023-06-10T05:56:48;21.30;99.90
36548;DHT22;22551;52.206;4.856;2023-06-10T06:01:50;21.80;99.90
36548;DHT22;22551;52.206;4.856;2023-06-10T06:06:52;21.60;99.90
36548;DHT22;22551;52.206;4.856;2023-06-10T06:11:55;21.50;99.90
36548;DHT22;22551;52.206;4.856;2023-06-10T06:16:58;21.80;99.90
36548;DHT22;22551;52.206;4.856;2023-06-10T06:22:00;21.80;99.90
36548;DHT22;22551;52.206;4.856;2023-06-10T06:27:05;21.60;99.90
36548;DHT22;22551;52.206;4.856;2023-06-10T06:32:08;21.90;99.90
36548;DHT22;22551;52.206;4.856;2023-06-10T06:37:10;22.10;99.90
36548;DHT22;22551;52.206;4.856;2023-06-10T06:42:13;22.60;99.90
36548;DHT22;22551;52.206;4.856;2023-06-10T06:47:16;22.40;99.90
36548;DHT22;22551;52.206;4.856;2023-06-10T06:52:20;22.40;99.90
36548;DHT22;22551;52.206;4.856;2023-06-10T06:57:24;22.80;99.90
36548;DHT22;22551;52.206;4.856;2023-06-10T07:02:26;23.50;99.90
36548;DHT22;22551;52.206;4.856;2023-06-10T07:07:28;23.60;99.90
36548;DHT22;22551;52.206;4.856;2023-06-10T07:12:32;23.80;99.90
36548;DHT22;22551;52.206;4.856;2023-06-10T07:17:34;24.20;99.90
36548;DHT22;22551;52.206;4.856;2023-06-10T07:22:36;24.40;99.90
36548;DHT22;22551;52.206;4.856;2023-06-10T07:27:42;24.50;99.90
36548;DHT22;22551;52.206;4.856;2023-06-10T07:32:45;25.30;99.90
36548;DHT22;22551;52.206;4.856;2023-06-10T07:37:48;24.40;99.90
36548;DHT22;22551;52.206;4.856;2023-06-10T07:42:52;24.70;99.90
36548;DHT22;22551;52.206;4.856;2023-06-10T07:47:57;25.20;99.90
36548;DHT22;22551;52.206;4.856;2023-06-10T07:52:59;25.80;99.90
36548;DHT22;22551;52.206;4.856;2023-06-10T07:58:04;26.00;99.90
36548;DHT22;22551;52.206;4.856;2023-06-10T08:03:08;26.00;99.90
36548;DHT22;22551;52.206;4.856;2023-06-10T08:08:11;25.70;99.90
36548;DHT22;22551;52.206;4.856;2023-06-10T08:13:16;26.60;99.90
36548;DHT22;22551;52.206;4.856;2023-06-10T08:18:18;27.10;99.90
36548;DHT22;22551;52.206;4.856;2023-06-10T08:23:21;27.10;99.90
36548;DHT22;22551;52.206;4.856;2023-06-10T08:28:25;27.30;99.90
36548;DHT22;22551;52.206;4.856;2023-06-10T08:33:27;27.70;99.90
36548;DHT22;22551;52.206;4.856;2023-06-10T08:38:29;27.40;99.90
36548;DHT22;22551;52.206;4.856;2023-06-10T08:43:37;27.30;99.90
36548;DHT22;22551;52.206;4.856;2023-06-10T08:48:43;28.30;99.90
36548;DHT22;22551;52.206;4.856;2023-06-10T08:53:50;28.50;99.60
36548;DHT22;22551;52.206;4.856;2023-06-10T08:58:57;27.90;99.90
36548;DHT22;22551;52.206;4.856;2023-06-10T09:04:01;28.00;99.20
36548;DHT22;22551;52.206;4.856;2023-06-10T09:09:06;28.60;99.10
36548;DHT22;22551;52.206;4.856;2023-06-10T09:14:13;28.60;99.70
36548;DHT22;22551;52.206;4.856;2023-06-10T09:19:17;28.60;99.90
36548;DHT22;22551;52.206;4.856;2023-06-10T09:24:22;27.90;99.90
36548;DHT22;22551;52.206;4.856;2023-06-10T09:29:26;28.10;99.90
36548;DHT22;22551;52.206;4.856;2023-06-10T09:34:29;28.60;99.90
36548;DHT22;22551;52.206;4.856;2023-06-10T09:39:31;28.20;99.90
36548;DHT22;22551;52.206;4.856;2023-06-10T09:44:36;28.30;99.90
36548;DHT22;22551;52.206;4.856;2023-06-10T09:49:41;28.80;99.90
36548;DHT22;22551;52.206;4.856;2023-06-10T09:54:44;29.00;99.90
36548;DHT22;22551;52.206;4.856;2023-06-10T09:59:48;29.80;99.00
36548;DHT22;22551;52.206;4.856;2023-06-10T10:05:02;29.30;98.80
36548;DHT22;22551;52.206;4.856;2023-06-10T10:10:06;29.50;98.90
36548;DHT22;22551;52.206;4.856;2023-06-10T10:15:11;29.40;98.40
36548;DHT22;22551;52.206;4.856;2023-06-10T10:20:19;29.50;98.30
36548;DHT22;22551;52.206;4.856;2023-06-10T10:25:25;29.10;99.70
36548;DHT22;22551;52.206;4.856;2023-06-10T10:30:37;29.60;98.20
36548;DHT22;22551;52.206;4.856;2023-06-10T10:35:41;29.60;97.90
36548;DHT22;22551;52.206;4.856;2023-06-10T10:40:44;29.40;97.70
36548;DHT22;22551;52.206;4.856;2023-06-10T10:45:59;30.20;97.40
36548;DHT22;22551;52.206;4.856;2023-06-10T10:51:01;30.40;97.40
36548;DHT22;22551;52.206;4.856;2023-06-10T10:56:07;30.50;96.90
36548;DHT22;22551;52.206;4.856;2023-06-10T11:01:13;30.10;96.80
36548;DHT22;22551;52.206;4.856;2023-06-10T11:06:18;30.00;96.50
36548;DHT22;22551;52.206;4.856;2023-06-10T11:11:23;31.20;96.50
36548;DHT22;22551;52.206;4.856;2023-06-10T11:16:29;30.80;95.90
36548;DHT22;22551;52.206;4.856;2023-06-10T11:21:31;30.90;95.20
36548;DHT22;22551;52.206;4.856;2023-06-10T11:26:33;31.10;95.90
36548;DHT22;22551;52.206;4.856;2023-06-10T11:31:42;31.60;95.00
36548;DHT22;22551;52.206;4.856;2023-06-10T11:36:45;30.80;94.70
36548;DHT22;22551;52.206;4.856;2023-06-10T11:41:48;31.00;94.20
36548;DHT22;22551;52.206;4.856;2023-06-10T11:46:52;30.70;94.10
36548;DHT22;22551;52.206;4.856;2023-06-10T11:51:56;30.60;94.50
36548;DHT22;22551;52.206;4.856;2023-06-10T11:56:59;31.20;93.70
36548;DHT22;22551;52.206;4.856;2023-06-10T12:02:05;30.80;93.70
36548;DHT22;22551;52.206;4.856;2023-06-10T12:07:07;30.80;93.40
36548;DHT22;22551;52.206;4.856;2023-06-10T12:12:10;31.20;93.50
36548;DHT22;22551;52.206;4.856;2023-06-10T12:17:14;31.10;93.20
36548;DHT22;22551;52.206;4.856;2023-06-10T12:22:16;31.30;92.80
36548;DHT22;22551;52.206;4.856;2023-06-10T12:27:19;31.60;92.70
36548;DHT22;22551;52.206;4.856;2023-06-10T12:32:34;30.90;92.30
36548;DHT22;22551;52.206;4.856;2023-06-10T12:37:36;31.20;92.20
36548;DHT22;22551;52.206;4.856;2023-06-10T12:42:39;30.90;92.00
36548;DHT22;22551;52.206;4.856;2023-06-10T12:47:43;31.00;92.40
36548;DHT22;22551;52.206;4.856;2023-06-10T12:52:45;31.50;91.40
36548;DHT22;22551;52.206;4.856;2023-06-10T12:57:50;31.30;92.70
36548;DHT22;22551;52.206;4.856;2023-06-10T13:02:53;31.30;92.50
36548;DHT22;22551;52.206;4.856;2023-06-10T13:07:56;31.20;92.10
36548;DHT22;22551;52.206;4.856;2023-06-10T13:12:58;31.30;92.30
36548;DHT22;22551;52.206;4.856;2023-06-10T13:18:02;31.00;92.40
36548;DHT22;22551;52.206;4.856;2023-06-10T13:23:05;30.80;92.30
36548;DHT22;22551;52.206;4.856;2023-06-10T13:28:07;31.50;92.10
36548;DHT22;22551;52.206;4.856;2023-06-10T13:33:13;31.30;92.60
36548;DHT22;22551;52.206;4.856;2023-06-10T13:38:16;30.30;92.00
36548;DHT22;22551;52.206;4.856;2023-06-10T13:43:18;30.30;93.00
36548;DHT22;22551;52.206;4.856;2023-06-10T13:48:21;30.40;92.90
36548;DHT22;22551;52.206;4.856;2023-06-10T13:53:24;30.30;92.90
36548;DHT22;22551;52.206;4.856;2023-06-10T13:58:26;30.50;92.90
36548;DHT22;22551;52.206;4.856;2023-06-10T14:03:30;30.60;92.50
36548;DHT22;22551;52.206;4.856;2023-06-10T14:08:32;30.50;91.90
36548;DHT22;22551;52.206;4.856;2023-06-10T14:13:35;30.70;92.70
36548;DHT22;22551;52.206;4.856;2023-06-10T14:18:40;30.30;92.80
36548;DHT22;22551;52.206;4.856;2023-06-10T14:23:42;30.30;92.90
36548;DHT22;22551;52.206;4.856;2023-06-10T14:28:46;30.50;92.90
36548;DHT22;22551;52.206;4.856;2023-06-10T14:33:49;30.10;92.30
36548;DHT22;22551;52.206;4.856;2023-06-10T14:38:51;29.70;93.30
36548;DHT22;22551;52.206;4.856;2023-06-10T14:43:54;30.00;93.30
36548;DHT22;22551;52.206;4.856;2023-06-10T14:48:57;29.80;92.90
36548;DHT22;22551;52.206;4.856;2023-06-10T14:54:00;29.40;92.40
36548;DHT22;22551;52.206;4.856;2023-06-10T14:59:02;29.50;92.10
36548;DHT22;22551;52.206;4.856;2023-06-10T15:04:06;30.00;93.30
36548;DHT22;22551;52.206;4.856;2023-06-10T15:09:08;29.50;91.20
36548;DHT22;22551;52.206;4.856;2023-06-10T15:14:11;29.40;91.30
36548;DHT22;22551;52.206;4.856;2023-06-10T15:19:15;29.30;90.80
36548;DHT22;22551;52.206;4.856;2023-06-10T15:24:17;29.60;90.40
36548;DHT22;22551;52.206;4.856;2023-06-10T15:29:19;29.90;90.40
36548;DHT22;22551;52.206;4.856;2023-06-10T15:34:23;29.50;90.20
36548;DHT22;22551;52.206;4.856;2023-06-10T15:39:25;29.40;89.90
36548;DHT22;22551;52.206;4.856;2023-06-10T15:44:28;29.70;89.60
36548;DHT22;22551;52.206;4.856;2023-06-10T15:49:31;29.40;89.40
36548;DHT22;22551;52.206;4.856;2023-06-10T15:54:33;29.40;88.70
36548;DHT22;22551;52.206;4.856;2023-06-10T15:59:36;29.30;90.40
36548;DHT22;22551;52.206;4.856;2023-06-10T16:04:39;29.40;88.80
36548;DHT22;22551;52.206;4.856;2023-06-10T16:09:42;29.60;91.10
36548;DHT22;22551;52.206;4.856;2023-06-10T16:14:44;30.10;88.40
36548;DHT22;22551;52.206;4.856;2023-06-10T16:19:48;30.40;89.60
36548;DHT22;22551;52.206;4.856;2023-06-10T16:24:50;30.20;89.90
36548;DHT22;22551;52.206;4.856;2023-06-10T16:29:53;30.10;89.90
36548;DHT22;22551;52.206;4.856;2023-06-10T16:34:56;29.80;90.00
36548;DHT22;22551;52.206;4.856;2023-06-10T16:39:58;29.60;90.00
36548;DHT22;22551;52.206;4.856;2023-06-10T16:45:01;29.90;89.30
36548;DHT22;22551;52.206;4.856;2023-06-10T16:50:05;29.60;87.50
36548;DHT22;22551;52.206;4.856;2023-06-10T16:55:08;29.50;86.40
36548;DHT22;22551;52.206;4.856;2023-06-10T17:00:11;29.30;85.90
36548;DHT22;22551;52.206;4.856;2023-06-10T17:05:16;29.20;85.40
36548;DHT22;22551;52.206;4.856;2023-06-10T17:10:18;28.90;86.20
36548;DHT22;22551;52.206;4.856;2023-06-10T17:15:20;28.80;85.70
36548;DHT22;22551;52.206;4.856;2023-06-10T17:20:24;28.70;86.60
36548;DHT22;22551;52.206;4.856;2023-06-10T17:25:27;28.70;86.00
36548;DHT22;22551;52.206;4.856;2023-06-10T17:30:29;28.60;87.20
36548;DHT22;22551;52.206;4.856;2023-06-10T17:35:33;28.70;85.70
36548;DHT22;22551;52.206;4.856;2023-06-10T17:40:35;28.20;86.30
36548;DHT22;22551;52.206;4.856;2023-06-10T17:45:37;28.30;86.10
36548;DHT22;22551;52.206;4.856;2023-06-10T17:50:41;28.00;86.60
36548;DHT22;22551;52.206;4.856;2023-06-10T17:55:43;27.90;85.10
36548;DHT22;22551;52.206;4.856;2023-06-10T18:00:46;27.70;85.60
36548;DHT22;22551;52.206;4.856;2023-06-10T18:05:50;27.60;85.50
36548;DHT22;22551;52.206;4.856;2023-06-10T18:10:52;27.20;86.70
36548;DHT22;22551;52.206;4.856;2023-06-10T18:15:54;27.00;87.80
36548;DHT22;22551;52.206;4.856;2023-06-10T18:20:58;26.80;88.60
36548;DHT22;22551;52.206;4.856;2023-06-10T18:26:00;26.70;90.10
36548;DHT22;22551;52.206;4.856;2023-06-10T18:31:02;26.60;90.40
36548;DHT22;22551;52.206;4.856;2023-06-10T18:36:06;26.50;90.80
36548;DHT22;22551;52.206;4.856;2023-06-10T18:41:08;26.50;91.10
36548;DHT22;22551;52.206;4.856;2023-06-10T18:46:10;26.20;91.50
36548;DHT22;22551;52.206;4.856;2023-06-10T18:51:14;25.90;91.90
36548;DHT22;22551;52.206;4.856;2023-06-10T18:56:16;25.70;92.40
36548;DHT22;22551;52.206;4.856;2023-06-10T19:01:18;25.50;92.60
36548;DHT22;22551;52.206;4.856;2023-06-10T19:06:23;25.30;92.90
36548;DHT22;22551;52.206;4.856;2023-06-10T19:11:25;25.20;93.10
36548;DHT22;22551;52.206;4.856;2023-06-10T19:16:27;25.10;93.30
36548;DHT22;22551;52.206;4.856;2023-06-10T19:21:30;25.00;93.50
36548;DHT22;22551;52.206;4.856;2023-06-10T19:26:32;24.90;93.90
36548;DHT22;22551;52.206;4.856;2023-06-10T19:31:35;24.80;94.30
36548;DHT22;22551;52.206;4.856;2023-06-10T19:36:39;24.60;94.60
36548;DHT22;22551;52.206;4.856;2023-06-10T19:41:41;24.40;95.10
36548;DHT22;22551;52.206;4.856;2023-06-10T19:46:45;24.20;95.30
36548;DHT22;22551;52.206;4.856;2023-06-10T19:51:49;24.20;95.50
36548;DHT22;22551;52.206;4.856;2023-06-10T19:56:51;24.10;95.90
36548;DHT22;22551;52.206;4.856;2023-06-10T20:01:53;23.90;96.00
36548;DHT22;22551;52.206;4.856;2023-06-10T20:06:57;23.60;96.40
36548;DHT22;22551;52.206;4.856;2023-06-10T20:12:00;23.50;96.60
36548;DHT22;22551;52.206;4.856;2023-06-10T20:17:02;23.40;96.70
36548;DHT22;22551;52.206;4.856;2023-06-10T20:22:06;23.30;97.00
36548;DHT22;22551;52.206;4.856;2023-06-10T20:27:08;23.20;97.40
36548;DHT22;22551;52.206;4.856;2023-06-10T20:32:10;23.00;97.40
36548;DHT22;22551;52.206;4.856;2023-06-10T20:37:14;22.80;97.90
36548;DHT22;22551;52.206;4.856;2023-06-10T20:42:16;22.80;98.00
36548;DHT22;22551;52.206;4.856;2023-06-10T20:47:18;22.60;98.40
36548;DHT22;22551;52.206;4.856;2023-06-10T20:52:22;22.50;98.70
36548;DHT22;22551;52.206;4.856;2023-06-10T20:57:24;22.40;99.30
36548;DHT22;22551;52.206;4.856;2023-06-10T21:02:26;22.30;99.60
36548;DHT22;22551;52.206;4.856;2023-06-10T21:07:30;22.10;99.90
36548;DHT22;22551;52.206;4.856;2023-06-10T21:12:32;22.00;99.90
36548;DHT22;22551;52.206;4.856;2023-06-10T21:17:34;21.80;99.90
36548;DHT22;22551;52.206;4.856;2023-06-10T21:22:38;21.80;99.90
36548;DHT22;22551;52.206;4.856;2023-06-10T21:27:40;21.80;99.90
36548;DHT22;22551;52.206;4.856;2023-06-10T21:32:43;21.70;99.90
36548;DHT22;22551;52.206;4.856;2023-06-10T21:37:48;21.60;99.90
36548;DHT22;22551;52.206;4.856;2023-06-10T21:42:51;21.50;99.90
36548;DHT22;22551;52.206;4.856;2023-06-10T21:47:53;21.40;99.90
36548;DHT22;22551;52.206;4.856;2023-06-10T21:52:58;21.40;99.90
36548;DHT22;22551;52.206;4.856;2023-06-10T21:58:00;21.30;99.90
36548;DHT22;22551;52.206;4.856;2023-06-10T22:03:02;21.30;99.90
36548;DHT22;22551;52.206;4.856;2023-06-10T22:08:06;21.20;99.90
36548;DHT22;22551;52.206;4.856;2023-06-10T22:13:08;21.00;99.90
36548;DHT22;22551;52.206;4.856;2023-06-10T22:18:10;21.00;99.90
36548;DHT22;22551;52.206;4.856;2023-06-10T22:23:19;20.90;99.90
36548;DHT22;22551;52.206;4.856;2023-06-10T22:28:21;20.80;99.90
36548;DHT22;22551;52.206;4.856;2023-06-10T22:33:23;20.80;99.90
36548;DHT22;22551;52.206;4.856;2023-06-10T22:38:27;20.70;99.90
36548;DHT22;22551;52.206;4.856;2023-06-10T22:43:29;20.70;99.90
36548;DHT22;22551;52.206;4.856;2023-06-10T22:48:31;20.60;99.90
36548;DHT22;22551;52.206;4.856;2023-06-10T22:53:35;20.60;99.90
36548;DHT22;22551;52.206;4.856;2023-06-10T22:58:38;20.60;99.90
36548;DHT22;22551;52.206;4.856;2023-06-10T23:03:40;20.60;99.90
36548;DHT22;22551;52.206;4.856;2023-06-10T23:08:44;20.50;99.90
36548;DHT22;22551;52.206;4.856;2023-06-10T23:13:46;20.50;99.90
36548;DHT22;22551;52.206;4.856;2023-06-10T23:18:48;20.40;99.90
36548;DHT22;22551;52.206;4.856;2023-06-10T23:23:54;20.30;99.90
36548;DHT22;22551;52.206;4.856;2023-06-10T23:28:57;20.30;99.90
36548;DHT22;22551;52.206;4.856;2023-06-10T23:33:59;20.20;99.90
36548;DHT22;22551;52.206;4.856;2023-06-10T23:39:03;20.20;99.90
36548;DHT22;22551;52.206;4.856;2023-06-10T23:44:05;20.20;99.90
36548;DHT22;22551;52.206;4.856;2023-06-10T23:49:08;20.10;99.90
36548;DHT22;22551;52.206;4.856;2023-06-10T23:54:11;20.00;99.90
36548;DHT22;22551;52.206;4.856;2023-06-10T23:59:14;20.00;99.90
